Time;durP1;ratioP1;P1;durP2;ratioP2;P2;SDS_P1;SDS_P2;PMS_P1;PMS_P2;Temp;Humidity;BMP_temperature;BMP_pressure;BME280_temperature;BME280_humidity;BME280_pressure;Samples;Min_cycle;Max_cycle;Signal;HPM_P1;HPM_P2
2022/01/21 00:01:31;;;;;;;23.75;3.97;;;3.80;99.90;;;;;;5038602;28;20519;-73
2022/01/21 00:03:57;;;;;;;22.13;4.57;;;3.90;99.90;;;;;;5035945;28;20029;-73
2022/01/21 00:06:23;;;;;;;15.45;3.53;;;3.80;99.90;;;;;;5037855;28;20093;-73
2022/01/21 00:08:52;;;;;;;20.52;3.85;;;3.80;99.90;;;;;;5034426;28;20018;-74
2022/01/21 00:11:20;;;;;;;22.65;3.92;;;3.80;99.90;;;;;;5042605;28;20068;-73
2022/01/21 00:13:45;;;;;;;21.98;4.25;;;3.80;99.90;;;;;;5036822;28;20017;-74
2022/01/21 00:16:14;;;;;;;22.65;4.82;;;3.80;99.90;;;;;;5038802;28;20035;-74
2022/01/21 00:18:44;;;;;;;23.85;4.65;;;3.80;99.90;;;;;;5043924;28;20045;-74
2022/01/21 00:32:09;;;;;;;19.10;4.82;;;3.70;99.90;;;;;;5041904;28;20630;-73
2022/01/21 00:34:35;;;;;;;23.88;4.22;;;3.70;99.90;;;;;;5044493;28;20171;-73
2022/01/21 00:37:00;;;;;;;28.40;4.75;;;3.70;99.90;;;;;;5049108;28;20028;-73
2022/01/21 00:39:30;;;;;;;21.92;4.50;;;3.70;99.90;;;;;;5043656;28;20042;-73
2022/01/21 00:44:40;;;;;;;21.80;4.57;;;3.70;99.90;;;;;;5039224;28;20158;-73
2022/01/21 00:47:06;;;;;;;20.67;4.95;;;3.70;99.90;;;;;;5037059;28;20053;-73
2022/01/21 00:49:32;;;;;;;30.77;4.43;;;3.70;99.90;;;;;;5039220;28;20029;-73
2022/01/21 00:51:58;;;;;;;19.75;4.43;;;3.70;99.90;;;;;;5041843;28;20025;-74
2022/01/21 00:54:24;;;;;;;22.80;4.90;;;3.70;99.90;;;;;;5044870;28;20029;-73
2022/01/21 00:56:49;;;;;;;18.88;4.00;;;3.60;99.90;;;;;;5040294;28;20378;-73
2022/01/21 00:59:15;;;;;;;25.50;5.38;;;3.60;99.90;;;;;;5043270;28;20041;-73
2022/01/21 01:01:41;;;;;;;16.38;3.95;;;3.60;99.90;;;;;;5045984;28;20124;-72
2022/01/21 01:04:07;;;;;;;15.50;4.63;;;3.60;99.90;;;;;;5034473;28;20034;-73
2022/01/21 01:06:33;;;;;;;25.52;4.47;;;3.60;99.90;;;;;;5041512;28;20036;-73
2022/01/21 01:08:59;;;;;;;21.85;4.63;;;3.60;99.90;;;;;;5048215;28;20116;-73
2022/01/21 01:27:57;;;;;;;26.77;4.57;;;3.50;99.90;;;;;;5035972;28;20409;-73
2022/01/21 01:30:26;;;;;;;15.80;3.88;;;3.60;99.90;;;;;;5045880;28;20025;-73
2022/01/21 01:32:58;;;;;;;17.88;4.97;;;3.50;99.90;;;;;;5040757;28;20167;-73
2022/01/21 01:35:26;;;;;;;20.45;3.92;;;3.50;99.90;;;;;;5036433;28;20029;-73
2022/01/21 01:40:42;;;;;;;23.25;4.20;;;3.50;99.90;;;;;;5039055;28;20103;-73
2022/01/21 01:51:00;;;;;;;17.45;3.90;;;3.50;99.90;;;;;;5037100;28;20471;-73
2022/01/21 01:53:39;;;;;;;18.23;3.30;;;3.50;99.90;;;;;;5038409;28;20038;-73
2022/01/21 01:56:08;;;;;;;13.23;3.25;;;3.40;99.90;;;;;;5038496;28;20017;-73
2022/01/21 01:58:38;;;;;;;19.63;3.33;;;3.50;99.90;;;;;;5040065;28;20029;-73
2022/01/21 02:01:05;;;;;;;21.13;3.80;;;3.40;99.90;;;;;;5051656;28;20453;-73
2022/01/21 02:03:31;;;;;;;19.08;4.50;;;3.40;99.90;;;;;;5039135;28;20065;-73
2022/01/21 02:05:57;;;;;;;14.80;4.05;;;3.40;99.90;;;;;;5042295;28;20041;-73
2022/01/21 02:08:23;;;;;;;23.95;4.35;;;3.50;99.90;;;;;;5039169;28;20476;-73
2022/01/21 02:10:49;;;;;;;20.40;3.88;;;3.50;99.90;;;;;;5041505;28;20033;-72
2022/01/21 02:13:24;;;;;;;20.50;3.97;;;3.40;99.90;;;;;;5035718;28;20079;-74
2022/01/21 02:17:09;;;;;;;17.13;3.85;;;3.40;99.90;;;;;;5038814;28;20677;-71
2022/01/21 02:21:46;;;;;;;16.92;3.22;;;3.40;99.90;;;;;;5033899;28;20040;-72
2022/01/21 02:24:23;;;;;;;12.52;3.75;;;3.40;99.90;;;;;;5041708;28;20437;-72
2022/01/21 02:26:52;;;;;;;20.55;3.67;;;3.40;99.90;;;;;;5041430;28;20025;-72
2022/01/21 02:29:29;;;;;;;9.75;2.25;;;3.40;99.90;;;;;;5044944;28;20108;-72
2022/01/21 02:31:57;;;;;;;18.23;3.78;;;3.40;99.90;;;;;;5030553;28;20108;-73
2022/01/21 02:34:23;;;;;;;15.50;3.42;;;3.30;99.90;;;;;;5034924;28;20037;-73
2022/01/21 02:36:48;;;;;;;24.60;3.28;;;3.40;99.90;;;;;;5038366;28;20028;-73
2022/01/21 02:39:14;;;;;;;15.35;3.65;;;3.30;99.90;;;;;;5042692;28;20086;-72
2022/01/21 02:41:40;;;;;;;17.70;3.35;;;3.30;99.90;;;;;;5036066;28;20025;-73
2022/01/21 02:44:07;;;;;;;14.63;3.22;;;3.40;99.90;;;;;;5036215;28;20082;-72
2022/01/21 02:46:37;;;;;;;21.65;4.20;;;3.40;99.90;;;;;;5045658;28;20478;-72
2022/01/21 02:49:02;;;;;;;15.70;2.90;;;3.30;99.90;;;;;;5044913;28;20029;-71
2022/01/21 02:51:28;;;;;;;14.38;3.35;;;3.30;99.90;;;;;;5040038;28;20039;-72
2022/01/21 02:56:19;;;;;;;14.40;3.30;;;3.30;99.90;;;;;;5037972;28;20125;-73
2022/01/21 02:58:47;;;;;;;20.42;3.63;;;3.20;99.90;;;;;;5043931;28;20033;-73
2022/01/21 03:01:14;;;;;;;16.40;3.63;;;3.20;99.90;;;;;;5046618;28;20064;-73
2022/01/21 03:03:41;;;;;;;19.52;3.80;;;3.20;99.90;;;;;;5038263;28;20028;-73
2022/01/21 03:06:07;;;;;;;17.60;3.35;;;3.10;99.90;;;;;;5042133;28;20030;-72
2022/01/21 03:08:33;;;;;;;17.60;4.05;;;3.10;99.90;;;;;;5038000;28;20025;-72
2022/01/21 03:10:59;;;;;;;15.65;3.35;;;3.20;99.90;;;;;;5034545;28;20026;-72
2022/01/21 03:13:24;;;;;;;17.80;3.25;;;3.10;99.90;;;;;;5041032;28;20030;-72
2022/01/21 03:15:51;;;;;;;20.27;3.75;;;3.20;99.90;;;;;;5039752;28;20033;-72
2022/01/21 03:18:17;;;;;;;17.02;3.58;;;3.20;99.90;;;;;;5041378;28;20025;-73
2022/01/21 03:20:44;;;;;;;17.95;3.50;;;3.20;99.90;;;;;;5043083;28;20041;-72
2022/01/21 03:23:15;;;;;;;17.38;3.63;;;3.20;99.90;;;;;;5041940;28;20028;-72
2022/01/21 03:25:42;;;;;;;16.08;3.25;;;3.20;99.90;;;;;;5040698;28;20033;-72
2022/01/21 03:28:08;;;;;;;17.10;4.28;;;3.20;99.90;;;;;;5033063;28;20107;-73
2022/01/21 03:30:35;;;;;;;21.60;3.35;;;3.20;99.90;;;;;;5039723;28;20037;-72
2022/01/21 03:33:00;;;;;;;18.13;4.43;;;3.20;99.90;;;;;;5038738;28;20038;-72
2022/01/21 03:35:26;;;;;;;21.08;3.85;;;3.20;99.90;;;;;;5050299;28;20473;-72
2022/01/21 03:37:52;;;;;;;24.00;4.22;;;3.20;99.90;;;;;;5040375;28;20030;-73
2022/01/21 03:40:18;;;;;;;23.70;4.50;;;3.10;99.90;;;;;;5036953;28;20041;-72
2022/01/21 03:42:43;;;;;;;27.58;4.72;;;3.10;99.90;;;;;;5039867;28;20034;-72
2022/01/21 03:45:11;;;;;;;21.75;3.75;;;3.10;99.90;;;;;;5044323;28;20112;-72
2022/01/21 03:47:37;;;;;;;15.00;4.18;;;3.10;99.90;;;;;;5027964;28;20029;-72
2022/01/21 03:50:21;;;;;;;15.75;4.18;;;3.00;99.90;;;;;;5044296;28;20039;-72
2022/01/21 03:52:47;;;;;;;15.35;4.15;;;3.10;99.90;;;;;;5038234;28;20033;-72
2022/01/21 03:55:13;;;;;;;16.20;4.03;;;3.00;99.90;;;;;;5048533;28;20059;-72
2022/01/21 03:57:39;;;;;;;19.02;5.03;;;3.10;99.90;;;;;;5041091;28;20502;-72
2022/01/21 04:00:07;;;;;;;15.52;4.50;;;3.10;99.90;;;;;;5041014;28;20132;-72
2022/01/21 04:02:33;;;;;;;13.52;4.30;;;3.00;99.90;;;;;;5039290;28;20021;-72
2022/01/21 04:04:58;;;;;;;19.08;5.25;;;3.00;99.90;;;;;;5045648;28;20086;-72
2022/01/21 04:07:24;;;;;;;12.77;4.18;;;3.00;99.90;;;;;;5038774;28;20025;-72
2022/01/21 04:09:50;;;;;;;20.50;4.32;;;3.00;99.90;;;;;;5046976;28;20112;-72
2022/01/21 04:12:15;;;;;;;20.45;4.70;;;3.00;99.90;;;;;;5038654;28;20522;-72
2022/01/21 04:14:42;;;;;;;19.52;5.00;;;3.00;99.90;;;;;;5046333;28;20445;-72
2022/01/21 04:17:07;;;;;;;19.48;5.18;;;3.00;99.90;;;;;;5050074;28;20033;-72
2022/01/21 04:19:33;;;;;;;16.63;4.95;;;3.00;99.90;;;;;;5041442;28;20377;-72
2022/01/21 04:21:59;;;;;;;16.65;5.03;;;3.00;99.90;;;;;;5035799;28;20026;-72
2022/01/21 04:24:25;;;;;;;20.38;4.60;;;3.10;99.90;;;;;;5041273;28;20098;-72
2022/01/21 04:26:51;;;;;;;17.73;4.82;;;3.00;99.90;;;;;;5041776;28;20037;-72
2022/01/21 04:29:16;;;;;;;16.23;4.80;;;3.00;99.90;;;;;;5041912;28;20025;-72
2022/01/21 04:31:42;;;;;;;16.98;5.13;;;3.00;99.90;;;;;;5042521;28;20079;-72
2022/01/21 04:34:08;;;;;;;14.60;4.32;;;3.00;99.90;;;;;;5040572;28;20021;-72
2022/01/21 04:36:35;;;;;;;20.77;5.18;;;2.90;99.90;;;;;;5036411;28;20060;-72
2022/01/21 04:39:03;;;;;;;20.50;5.00;;;2.90;99.90;;;;;;5046510;28;20029;-72
2022/01/21 04:47:44;;;;;;;17.95;4.82;;;3.00;99.90;;;;;;5045521;28;20040;-72
2022/01/21 04:49:39;;;;;;;23.58;4.55;;;2.90;99.90;;;;;;5050591;28;20036;-72
2022/01/21 04:52:05;;;;;;;20.58;5.38;;;2.90;99.90;;;;;;5050366;28;20037;-72
2022/01/21 04:54:33;;;;;;;15.82;4.90;;;2.90;99.90;;;;;;5039167;28;20535;-72
2022/01/21 04:57:00;;;;;;;16.60;5.00;;;2.90;99.90;;;;;;5044805;28;20029;-72
2022/01/21 04:59:26;;;;;;;16.92;5.30;;;2.90;99.90;;;;;;5045070;28;20039;-72
2022/01/21 05:01:52;;;;;;;16.90;4.13;;;2.90;99.90;;;;;;5047478;28;20029;-72
2022/01/21 05:04:19;;;;;;;14.32;4.72;;;2.90;99.90;;;;;;5045923;28;20024;-72
2022/01/21 05:06:46;;;;;;;17.83;5.40;;;2.90;99.90;;;;;;5044217;28;20025;-72
2022/01/21 05:09:15;;;;;;;13.55;5.57;;;2.90;99.90;;;;;;5041842;28;20450;-72
2022/01/21 05:11:41;;;;;;;21.25;4.85;;;3.00;99.90;;;;;;5045846;28;20024;-72
2022/01/21 05:14:39;;;;;;;16.45;4.82;;;3.00;99.90;;;;;;5042468;28;20054;-72
2022/01/21 05:17:03;;;;;;;21.00;5.03;;;2.90;99.90;;;;;;5045143;28;20033;-72
2022/01/21 05:19:29;;;;;;;26.60;5.40;;;2.90;99.90;;;;;;5049658;28;20025;-72
2022/01/21 05:21:54;;;;;;;23.85;5.13;;;2.90;99.90;;;;;;5044645;28;20044;-72
2022/01/21 05:24:21;;;;;;;10.98;4.03;;;2.80;99.90;;;;;;5039299;28;20513;-72
2022/01/21 05:26:56;;;;;;;14.23;4.38;;;2.90;99.90;;;;;;5044885;28;20124;-72
2022/01/21 05:29:24;;;;;;;18.90;5.50;;;2.90;99.90;;;;;;5039330;28;20444;-72
2022/01/21 05:31:50;;;;;;;21.05;4.43;;;2.80;99.90;;;;;;5044989;28;20474;-72
2022/01/21 05:34:16;;;;;;;15.25;4.28;;;2.80;99.90;;;;;;5039540;28;20029;-72
2022/01/21 05:36:41;;;;;;;15.82;4.50;;;2.80;99.90;;;;;;5041929;28;20041;-72
2022/01/21 05:39:08;;;;;;;21.38;5.30;;;2.70;99.90;;;;;;5037344;28;20037;-71
2022/01/21 05:41:34;;;;;;;15.90;4.38;;;2.80;99.90;;;;;;5048137;28;20033;-72
2022/01/21 05:44:09;;;;;;;19.30;5.72;;;2.80;99.90;;;;;;5041844;28;20091;-72
2022/01/21 05:49:18;;;;;;;20.58;5.22;;;2.80;99.90;;;;;;5045219;28;20063;-72
2022/01/21 05:51:44;;;;;;;14.60;4.95;;;2.70;99.90;;;;;;5048402;28;20048;-72
2022/01/21 05:54:12;;;;;;;17.13;5.85;;;2.70;99.90;;;;;;5048309;28;20086;-72
2022/01/21 05:56:38;;;;;;;24.15;5.45;;;2.70;99.90;;;;;;5039075;28;20021;-72
2022/01/21 05:59:05;;;;;;;13.35;5.35;;;2.70;99.90;;;;;;5048888;28;20056;-72
2022/01/21 06:01:32;;;;;;;20.83;6.13;;;2.70;99.90;;;;;;5038752;28;20044;-72
2022/01/21 06:03:58;;;;;;;18.92;5.90;;;2.70;99.90;;;;;;5045775;28;20108;-72
2022/01/21 06:06:24;;;;;;;14.73;5.95;;;2.80;99.90;;;;;;5038189;28;20523;-72
2022/01/21 06:08:50;;;;;;;20.20;6.60;;;2.80;99.90;;;;;;5047574;28;20032;-72
2022/01/21 06:11:16;;;;;;;19.65;5.72;;;2.70;99.90;;;;;;5038446;28;20024;-72
2022/01/21 06:13:44;;;;;;;17.42;6.72;;;2.70;99.90;;;;;;5038823;28;20037;-72
2022/01/21 06:16:09;;;;;;;25.23;6.97;;;2.70;99.90;;;;;;5036984;28;20040;-71
2022/01/21 06:18:35;;;;;;;17.05;6.80;;;2.80;99.90;;;;;;5046349;28;20654;-72
2022/01/21 06:21:01;;;;;;;22.25;6.93;;;2.80;99.90;;;;;;5039259;28;20056;-72
2022/01/21 06:23:27;;;;;;;15.30;5.90;;;2.70;99.90;;;;;;5039488;28;20025;-72
2022/01/21 06:25:52;;;;;;;19.38;6.32;;;2.70;99.90;;;;;;5042476;28;20433;-72
2022/01/21 06:28:18;;;;;;;23.55;6.60;;;2.70;99.90;;;;;;5044315;28;20029;-71
2022/01/21 06:30:44;;;;;;;19.10;6.22;;;2.70;99.90;;;;;;5040635;28;20436;-72
2022/01/21 06:33:10;;;;;;;19.20;7.18;;;2.70;99.90;;;;;;5040495;28;20033;-73
2022/01/21 06:35:35;;;;;;;18.38;7.05;;;2.70;99.90;;;;;;5034297;28;20025;-72
2022/01/21 06:38:01;;;;;;;14.80;6.15;;;2.70;99.90;;;;;;5041312;28;20036;-72
2022/01/21 06:40:27;;;;;;;18.02;6.80;;;2.70;99.90;;;;;;5034403;28;20041;-72
2022/01/21 06:42:53;;;;;;;18.15;6.93;;;2.70;99.90;;;;;;5037905;28;20033;-73
2022/01/21 06:45:19;;;;;;;33.08;7.93;;;2.70;99.90;;;;;;5031826;28;20029;-72
2022/01/21 06:47:46;;;;;;;20.48;7.22;;;2.70;99.90;;;;;;5037887;28;20018;-72
2022/01/21 06:50:12;;;;;;;18.95;6.78;;;2.70;99.90;;;;;;5044254;28;20033;-72
2022/01/21 06:52:38;;;;;;;18.40;7.20;;;2.70;99.90;;;;;;5038880;28;20029;-71
2022/01/21 06:55:04;;;;;;;24.95;7.03;;;2.70;99.90;;;;;;5040934;28;20470;-72
2022/01/21 06:57:30;;;;;;;14.25;7.13;;;2.70;99.90;;;;;;5039051;28;20078;-72
2022/01/21 06:59:56;;;;;;;21.58;7.90;;;2.70;99.90;;;;;;5042462;28;20041;-72
2022/01/21 07:02:22;;;;;;;23.10;7.72;;;2.70;99.90;;;;;;5033822;28;20044;-72
2022/01/21 07:04:49;;;;;;;17.35;8.25;;;2.70;99.90;;;;;;5039212;28;20470;-72
2022/01/21 07:07:16;;;;;;;17.83;7.43;;;2.70;99.90;;;;;;5039967;28;20025;-72
2022/01/21 07:09:42;;;;;;;24.98;8.15;;;2.70;99.90;;;;;;5040379;28;20029;-72
2022/01/21 07:12:08;;;;;;;18.83;7.38;;;2.80;99.90;;;;;;5041384;28;20098;-72
2022/01/21 07:14:34;;;;;;;15.63;7.60;;;2.70;99.90;;;;;;5047676;28;20104;-71
2022/01/21 07:17:00;;;;;;;18.27;7.63;;;2.80;99.90;;;;;;5035499;28;20446;-72
2022/01/21 07:19:25;;;;;;;19.50;7.40;;;2.80;99.90;;;;;;5035109;28;20025;-72
2022/01/21 07:21:51;;;;;;;15.13;6.70;;;2.80;99.90;;;;;;5034700;28;20385;-71
2022/01/21 07:24:17;;;;;;;15.68;7.70;;;2.80;99.90;;;;;;5043925;28;20025;-72
2022/01/21 07:26:42;;;;;;;27.38;7.63;;;2.80;99.90;;;;;;5043205;28;20047;-72
2022/01/21 07:29:08;;;;;;;12.95;7.47;;;2.80;99.90;;;;;;5036223;28;20100;-72
2022/01/21 07:31:34;;;;;;;20.17;8.93;;;2.80;99.90;;;;;;5039418;28;20029;-72
2022/01/21 07:34:04;;;;;;;15.52;9.20;;;2.90;99.90;;;;;;5035662;28;20029;-72
2022/01/21 07:36:31;;;;;;;15.40;8.70;;;2.90;99.90;;;;;;5043496;28;20389;-71
2022/01/21 07:38:56;;;;;;;25.10;9.60;;;2.90;99.90;;;;;;5041212;28;20028;-72
2022/01/21 07:41:22;;;;;;;19.85;10.77;;;2.90;99.90;;;;;;5036210;28;20033;-72
2022/01/21 07:43:48;;;;;;;20.30;10.70;;;2.90;99.90;;;;;;5041274;28;20527;-72
2022/01/21 07:46:14;;;;;;;19.65;10.45;;;3.00;99.90;;;;;;5043937;28;20389;-73
2022/01/21 07:48:39;;;;;;;28.40;11.30;;;3.00;99.90;;;;;;5038882;28;20398;-72
2022/01/21 07:51:05;;;;;;;15.50;9.40;;;3.00;99.90;;;;;;5038112;28;20033;-72
2022/01/21 07:53:31;;;;;;;22.38;9.93;;;3.00;99.90;;;;;;5044517;28;20029;-72
2022/01/21 07:55:57;;;;;;;19.67;9.60;;;3.10;99.90;;;;;;5040131;28;20480;-72
2022/01/21 07:58:23;;;;;;;19.50;10.27;;;3.10;99.90;;;;;;5049982;28;20060;-72
2022/01/21 08:00:48;;;;;;;19.00;8.85;;;3.20;99.90;;;;;;5038198;28;20121;-73
2022/01/21 08:03:15;;;;;;;17.02;9.52;;;3.20;99.90;;;;;;5044935;28;20425;-72
2022/01/21 08:05:42;;;;;;;18.77;9.10;;;3.20;99.90;;;;;;5056161;28;20117;-72
2022/01/21 08:08:08;;;;;;;18.85;8.85;;;3.30;99.90;;;;;;5033028;28;20100;-72
2022/01/21 08:10:34;;;;;;;23.63;10.35;;;3.20;99.90;;;;;;5034850;28;20160;-72
2022/01/21 08:13:00;;;;;;;24.67;10.98;;;3.30;99.90;;;;;;5043723;28;20029;-73
2022/01/21 08:15:27;;;;;;;23.27;11.85;;;3.30;99.90;;;;;;5034616;28;20028;-74
2022/01/21 08:17:53;;;;;;;23.25;11.73;;;3.30;99.90;;;;;;5032641;28;20091;-73
2022/01/21 08:20:19;;;;;;;18.95;11.02;;;3.30;99.90;;;;;;5033248;28;20065;-74
2022/01/21 08:22:45;;;;;;;28.30;11.60;;;3.20;99.90;;;;;;5034239;28;20484;-74
2022/01/21 08:25:10;;;;;;;19.67;10.65;;;3.30;99.90;;;;;;5030888;28;20041;-74
2022/01/21 08:27:37;;;;;;;17.83;10.80;;;3.40;99.90;;;;;;5032997;28;20036;-74
2022/01/21 08:30:06;;;;;;;28.65;11.20;;;3.40;99.90;;;;;;5033789;28;20040;-74
2022/01/21 08:32:33;;;;;;;19.13;10.43;;;3.50;99.90;;;;;;5042302;28;20021;-74
2022/01/21 08:34:59;;;;;;;21.58;11.07;;;3.50;99.90;;;;;;5046616;28;20021;-74
2022/01/21 08:37:24;;;;;;;20.88;9.85;;;3.50;99.90;;;;;;5037494;28;20029;-73
2022/01/21 08:39:51;;;;;;;18.83;11.02;;;3.50;99.90;;;;;;5032225;28;20468;-74
2022/01/21 08:42:17;;;;;;;19.05;11.30;;;3.50;99.90;;;;;;5034184;28;20033;-74
2022/01/21 08:44:43;;;;;;;27.75;10.73;;;3.50;99.90;;;;;;5041372;28;20413;-75
2022/01/21 08:47:08;;;;;;;20.17;10.23;;;3.50;99.90;;;;;;5038951;28;20030;-74
2022/01/21 08:49:35;;;;;;;14.32;8.82;;;3.50;99.90;;;;;;5049155;28;20025;-73
2022/01/21 08:52:00;;;;;;;22.83;12.27;;;3.60;99.90;;;;;;5038864;28;20068;-75
2022/01/21 08:54:27;;;;;;;25.38;12.07;;;3.60;99.90;;;;;;5042799;28;20033;-74
2022/01/21 08:56:55;;;;;;;24.73;11.48;;;3.60;99.90;;;;;;5039045;28;20482;-74
2022/01/21 08:59:21;;;;;;;22.50;12.38;;;3.70;99.90;;;;;;5041301;28;20041;-74
2022/01/21 09:01:50;;;;;;;21.70;11.63;;;3.70;99.90;;;;;;5036742;28;20371;-75
2022/01/21 09:04:17;;;;;;;24.95;11.60;;;3.70;99.90;;;;;;5040525;28;20028;-75
2022/01/21 09:06:42;;;;;;;23.10;11.73;;;3.70;99.90;;;;;;5043832;28;20030;-74
2022/01/21 09:09:08;;;;;;;16.77;10.73;;;3.80;99.90;;;;;;5041195;28;20436;-75
2022/01/21 09:11:34;;;;;;;18.48;11.05;;;3.80;99.90;;;;;;5039903;28;20377;-74
2022/01/21 09:14:01;;;;;;;22.95;11.85;;;3.80;99.90;;;;;;5036539;28;20033;-74
2022/01/21 09:16:26;;;;;;;21.42;11.85;;;3.90;99.90;;;;;;5037024;28;20033;-73
2022/01/21 09:18:56;;;;;;;31.30;11.60;;;3.90;99.90;;;;;;5042565;28;20440;-74
2022/01/21 09:21:24;;;;;;;23.02;11.43;;;4.00;99.90;;;;;;5043208;28;20037;-74
2022/01/21 09:23:50;;;;;;;24.42;11.93;;;4.00;99.90;;;;;;5039019;28;20074;-74
2022/01/21 09:26:17;;;;;;;20.45;10.70;;;4.10;99.90;;;;;;5042988;28;20038;-73
2022/01/21 09:28:44;;;;;;;20.90;11.75;;;4.00;99.90;;;;;;5047452;28;20021;-73
2022/01/21 09:31:10;;;;;;;23.95;12.07;;;4.00;99.90;;;;;;5028724;28;20116;-73
2022/01/21 09:33:36;;;;;;;20.80;12.80;;;4.00;99.90;;;;;;5037055;28;20098;-73
2022/01/21 09:36:02;;;;;;;23.02;13.57;;;4.10;99.90;;;;;;5040588;28;20457;-73
2022/01/21 09:38:29;;;;;;;26.77;12.88;;;4.10;99.90;;;;;;5046842;28;20051;-73
2022/01/21 09:40:55;;;;;;;28.80;13.45;;;4.10;99.90;;;;;;5042325;28;20025;-72
2022/01/21 09:43:21;;;;;;;21.00;11.68;;;4.10;99.90;;;;;;5036506;28;20044;-73
2022/01/21 09:45:51;;;;;;;20.08;11.07;;;4.10;99.90;;;;;;5036913;28;20044;-73
2022/01/21 09:48:30;;;;;;;22.25;10.50;;;4.10;99.90;;;;;;5037237;28;20020;-73
2022/01/21 09:50:59;;;;;;;22.05;11.02;;;4.30;99.90;;;;;;5044459;28;20025;-74
2022/01/21 09:53:27;;;;;;;21.05;10.75;;;4.30;99.90;;;;;;5038471;28;20112;-73
2022/01/21 09:55:56;;;;;;;21.75;9.40;;;4.40;99.90;;;;;;5041662;28;20077;-74
2022/01/21 09:58:22;;;;;;;14.63;9.52;;;4.50;99.90;;;;;;5044053;28;20031;-73
2022/01/21 10:00:48;;;;;;;15.90;8.20;;;4.60;99.90;;;;;;5037653;28;20046;-73
2022/01/21 10:03:15;;;;;;;17.02;8.30;;;4.60;99.90;;;;;;5032471;28;20030;-73
2022/01/21 10:05:45;;;;;;;20.38;8.32;;;4.70;99.90;;;;;;5040545;28;20733;-73
2022/01/21 10:08:12;;;;;;;18.55;7.80;;;4.70;99.90;;;;;;5038712;28;20033;-73
2022/01/21 10:10:41;;;;;;;14.63;7.50;;;4.70;99.90;;;;;;5044867;28;20104;-72
2022/01/21 10:13:08;;;;;;;21.55;8.48;;;4.80;99.90;;;;;;5054376;28;20017;-72
2022/01/21 10:15:34;;;;;;;21.55;7.57;;;4.80;99.90;;;;;;5039209;28;20029;-72
2022/01/21 10:18:03;;;;;;;16.70;8.02;;;4.90;99.90;;;;;;5035143;28;20029;-72
2022/01/21 10:20:29;;;;;;;20.17;8.32;;;5.00;99.90;;;;;;5038095;28;20037;-72
2022/01/21 10:23:02;;;;;;;21.73;8.25;;;5.10;99.90;;;;;;5046957;28;20031;-72
2022/01/21 10:25:27;;;;;;;19.13;8.18;;;5.10;99.90;;;;;;5040786;28;20354;-73
2022/01/21 10:28:16;;;;;;;16.38;8.63;;;5.20;99.90;;;;;;5040000;28;20055;-73
2022/01/21 10:30:43;;;;;;;20.88;8.93;;;5.20;99.90;;;;;;5038184;28;20076;-73
2022/01/21 10:33:23;;;;;;;21.75;8.40;;;5.30;99.90;;;;;;5042156;28;20025;-73
2022/01/21 10:35:51;;;;;;;19.52;8.13;;;5.20;99.90;;;;;;5041624;28;20032;-73
2022/01/21 10:38:22;;;;;;;23.40;8.57;;;5.30;99.90;;;;;;5045018;28;20048;-73
2022/01/21 10:40:47;;;;;;;18.20;8.95;;;5.30;99.90;;;;;;5034261;28;20029;-73
2022/01/21 10:43:17;;;;;;;17.38;8.52;;;5.40;99.90;;;;;;5034665;28;20039;-73
2022/01/21 10:45:56;;;;;;;22.40;8.23;;;5.50;99.90;;;;;;5044728;28;20160;-73
2022/01/21 10:48:21;;;;;;;19.08;8.18;;;5.50;99.90;;;;;;5042012;28;20037;-73
2022/01/21 10:51:16;;;;;;;27.17;9.00;;;5.60;99.90;;;;;;5036244;28;20386;-72
2022/01/21 10:53:45;;;;;;;19.40;8.57;;;5.60;99.90;;;;;;5041946;28;20029;-73
2022/01/21 10:56:13;;;;;;;22.33;9.05;;;5.60;99.90;;;;;;5033437;28;20479;-72
2022/01/21 10:58:41;;;;;;;13.75;7.90;;;5.70;99.90;;;;;;5033023;28;20033;-72
2022/01/21 11:01:13;;;;;;;17.27;8.27;;;5.70;99.90;;;;;;5035968;28;20106;-72
2022/01/21 11:03:57;;;;;;;16.95;8.73;;;5.70;99.90;;;;;;5034492;28;20009;-72
2022/01/21 11:06:25;;;;;;;22.08;9.52;;;5.70;99.90;;;;;;5031964;28;20064;-72
2022/01/21 11:09:10;;;;;;;17.70;8.85;;;5.80;99.90;;;;;;5039690;28;20120;-72
2022/01/21 11:11:36;;;;;;;21.70;8.63;;;5.90;99.90;;;;;;5036099;28;20009;-72
2022/01/21 11:14:13;;;;;;;18.98;8.45;;;5.90;99.90;;;;;;5032271;28;20116;-72
2022/01/21 11:16:42;;;;;;;19.60;8.57;;;5.90;99.90;;;;;;5033682;28;20031;-72
2022/01/21 11:19:09;;;;;;;21.50;8.50;;;5.90;99.90;;;;;;5036510;28;20119;-72
2022/01/21 11:21:44;;;;;;;24.20;8.00;;;5.90;99.90;;;;;;5032399;28;20029;-71
2022/01/21 11:24:11;;;;;;;19.95;8.05;;;5.90;99.90;;;;;;5028006;28;20480;-71
2022/01/21 11:26:37;;;;;;;18.90;7.40;;;6.00;99.90;;;;;;5036095;28;20409;-71
2022/01/21 11:29:05;;;;;;;18.02;7.28;;;6.00;99.90;;;;;;5034229;28;20056;-71
2022/01/21 11:31:31;;;;;;;16.02;7.95;;;6.10;99.90;;;;;;5027864;28;20128;-71
2022/01/21 11:33:57;;;;;;;19.80;7.45;;;6.10;99.90;;;;;;5041997;28;20022;-71
2022/01/21 11:36:24;;;;;;;20.60;7.10;;;6.20;99.90;;;;;;5039980;28;20113;-71
2022/01/21 11:38:54;;;;;;;22.85;6.68;;;6.20;99.90;;;;;;5056817;28;20394;-72
2022/01/21 11:41:21;;;;;;;12.55;6.00;;;6.30;99.90;;;;;;5039953;28;20144;-72
2022/01/21 11:43:51;;;;;;;15.25;6.97;;;6.40;99.90;;;;;;5044641;28;20500;-72
2022/01/21 11:49:00;;;;;;;14.57;6.10;;;6.70;99.90;;;;;;5040324;28;20025;-72
2022/01/21 11:51:34;;;;;;;13.70;5.55;;;6.60;99.90;;;;;;5033510;28;20453;-73
2022/01/21 11:54:13;;;;;;;17.02;5.70;;;6.70;99.90;;;;;;5039969;28;20048;-73
2022/01/21 11:56:46;;;;;;;17.73;5.53;;;6.80;99.90;;;;;;5031315;28;20018;-73
2022/01/21 11:59:35;;;;;;;;;;;6.90;99.90;;;;;;5040709;28;20094;-69
2022/01/21 12:02:24;;;;;;;13.80;5.75;;;6.90;99.90;;;;;;5035403;28;19920;-73
2022/01/21 12:04:52;;;;;;;14.00;5.30;;;6.90;99.90;;;;;;5032196;28;20037;-74
2022/01/21 12:07:33;;;;;;;21.85;4.65;;;6.90;99.90;;;;;;5036570;28;20078;-74
2022/01/21 12:10:05;;;;;;;17.23;5.05;;;7.00;99.90;;;;;;5038468;28;20033;-74
2022/01/21 12:13:12;;;;;;;;;;;7.00;99.90;;;;;;5037566;28;20032;-73
2022/01/21 12:15:45;;;;;;;17.52;5.30;;;7.10;99.90;;;;;;5040491;28;19913;-73
2022/01/21 12:18:44;;;;;;;17.50;4.28;;;7.10;99.90;;;;;;5033436;28;20048;-74
2022/01/21 12:21:31;;;;;;;19.52;5.00;;;7.20;99.90;;;;;;5021564;28;20045;-73
2022/01/21 12:23:57;;;;;;;20.58;4.45;;;7.10;99.90;;;;;;5037732;28;20044;-73
2022/01/21 12:26:28;;;;;;;18.15;5.15;;;7.20;99.90;;;;;;5028827;28;20024;-74
2022/01/21 12:28:59;;;;;;;22.05;4.68;;;7.30;99.90;;;;;;5039188;28;20477;-74
2022/01/21 12:31:47;;;;;;;16.35;4.70;;;7.30;99.90;;;;;;5035973;28;20029;-75
2022/01/21 12:34:15;;;;;;;16.58;4.60;;;7.40;99.90;;;;;;5047485;28;20026;-74
2022/01/21 12:36:53;;;;;;;17.50;3.83;;;7.40;99.90;;;;;;5048676;28;20044;-73
2022/01/21 12:39:39;;;;;;;15.00;4.53;;;7.40;99.90;;;;;;5036613;28;20037;-75
2022/01/21 12:42:20;;;;;;;14.73;3.95;;;7.40;99.90;;;;;;5045748;28;20037;-74
2022/01/21 12:44:50;;;;;;;17.08;4.05;;;7.40;99.90;;;;;;5037916;28;20459;-74
2022/01/21 12:47:43;;;;;;;16.38;4.50;;;7.50;99.90;;;;;;5039772;28;20020;-74
2022/01/21 12:50:16;;;;;;;18.13;4.38;;;7.50;99.90;;;;;;5047357;28;20025;-74
2022/01/21 12:52:56;;;;;;;14.65;3.67;;;7.50;99.90;;;;;;5039877;28;20025;-74
2022/01/21 12:58:16;;;;;;;16.27;3.83;;;7.50;99.90;;;;;;5035802;28;20048;-75
2022/01/21 13:00:43;;;;;;;15.23;4.03;;;7.50;99.90;;;;;;5042936;28;20037;-75
2022/01/21 13:03:41;;;;;;;14.30;3.97;;;7.60;99.90;;;;;;5038664;28;20027;-75
2022/01/21 13:06:19;;;;;;;15.85;4.00;;;7.60;99.90;;;;;;5044879;28;20454;-74
2022/01/21 13:09:20;;;;;;;11.50;3.95;;;7.70;99.90;;;;;;5042465;28;20033;-75
2022/01/21 13:11:54;;;;;;;18.33;4.35;;;7.60;99.90;;;;;;5042467;28;20033;-74
2022/01/21 13:14:26;;;;;;;14.40;3.67;;;7.60;99.90;;;;;;5045586;28;20033;-74
2022/01/21 13:17:06;;;;;;;14.10;3.72;;;7.60;99.90;;;;;;5040032;28;20040;-74
2022/01/21 13:19:54;;;;;;;13.10;3.10;;;7.60;99.90;;;;;;5041340;28;20116;-75
2022/01/21 13:22:30;;;;;;;21.45;3.53;;;7.60;99.90;;;;;;5039849;28;20481;-75
2022/01/21 13:25:09;;;;;;;19.58;3.63;;;7.70;99.90;;;;;;5041971;28;20025;-74
2022/01/21 13:27:47;;;;;;;12.25;3.47;;;7.80;99.90;;;;;;5046867;28;20032;-74
2022/01/21 13:30:15;;;;;;;16.45;3.65;;;7.80;99.90;;;;;;5041484;28;20120;-75
2022/01/21 13:32:41;;;;;;;14.07;3.10;;;7.80;99.90;;;;;;5043046;28;20029;-74
2022/01/21 13:35:09;;;;;;;16.73;3.40;;;7.80;99.90;;;;;;5043736;28;20021;-74
2022/01/21 13:37:36;;;;;;;18.23;3.30;;;7.80;99.90;;;;;;5044556;28;20030;-74
2022/01/21 13:40:05;;;;;;;15.68;3.22;;;7.80;99.90;;;;;;5041891;28;20025;-74
2022/01/21 13:42:32;;;;;;;11.48;3.30;;;7.80;99.90;;;;;;5039629;28;20414;-74
2022/01/21 13:45:05;;;;;;;16.77;3.90;;;7.90;99.90;;;;;;5042796;28;20025;-74
2022/01/21 13:47:31;;;;;;;13.57;3.58;;;7.80;99.90;;;;;;5039807;28;20109;-74
2022/01/21 13:50:04;;;;;;;13.95;3.95;;;7.90;99.90;;;;;;5041924;28;20032;-74
2022/01/21 13:52:37;;;;;;;15.73;4.10;;;7.90;99.90;;;;;;5045984;28;20036;-74
2022/01/21 13:55:03;;;;;;;19.77;5.22;;;8.00;99.90;;;;;;5041744;28;20473;-74